sensor_id;sensor_type;location;lat;lon;timestamp;P1;durP1;ratioP1;P2;durP2;ratioP2
11064;SDS011;5585;52.530;7.320;2024-01-15T00:00:37;4.87;;;1.20;;
11064;SDS011;5585;52.530;7.320;2024-01-15T00:03:04;8.47;;;1.63;;
11064;SDS011;5585;52.530;7.320;2024-01-15T00:05:30;6.10;;;1.07;;
11064;SDS011;5585;52.530;7.320;2024-01-15T00:07:57;4.93;;;1.17;;
11064;SDS011;5585;52.530;7.320;2024-01-15T00:10:24;4.80;;;1.23;;
11064;SDS011;5585;52.530;7.320;2024-01-15T00:12:51;4.30;;;1.43;;
11064;SDS011;5585;52.530;7.320;2024-01-15T00:15:17;6.07;;;1.40;;
11064;SDS011;5585;52.530;7.320;2024-01-15T00:17:44;5.73;;;1.43;;
11064;SDS011;5585;52.530;7.320;2024-01-15T00:20:11;5.03;;;1.00;;
11064;SDS011;5585;52.530;7.320;2024-01-15T00:22:37;4.77;;;1.20;;
11064;SDS011;5585;52.530;7.320;2024-01-15T00:25:04;6.27;;;1.60;;
11064;SDS011;5585;52.530;7.320;2024-01-15T00:27:32;6.93;;;1.27;;
11064;SDS011;5585;52.530;7.320;2024-01-15T00:29:58;3.80;;;1.00;;
11064;SDS011;5585;52.530;7.320;2024-01-15T00:32:24;3.83;;;1.20;;
11064;SDS011;5585;52.530;7.320;2024-01-15T00:34:51;7.90;;;1.27;;
11064;SDS011;5585;52.530;7.320;2024-01-15T00:37:17;5.53;;;1.30;;
11064;SDS011;5585;52.530;7.320;2024-01-15T00:39:44;7.87;;;1.27;;
11064;SDS011;5585;52.530;7.320;2024-01-15T00:42:10;5.03;;;1.20;;
11064;SDS011;5585;52.530;7.320;2024-01-15T00:44:38;7.17;;;1.17;;
11064;SDS011;5585;52.530;7.320;2024-01-15T00:47:05;6.23;;;1.67;;
11064;SDS011;5585;52.530;7.320;2024-01-15T00:49:31;8.43;;;1.60;;
11064;SDS011;5585;52.530;7.320;2024-01-15T00:51:57;6.37;;;1.60;;
11064;SDS011;5585;52.530;7.320;2024-01-15T00:54:24;5.20;;;1.23;;
11064;SDS011;5585;52.530;7.320;2024-01-15T00:56:50;4.03;;;1.10;;
11064;SDS011;5585;52.530;7.320;2024-01-15T00:59:17;5.67;;;1.40;;
11064;SDS011;5585;52.530;7.320;2024-01-15T01:01:47;4.37;;;1.30;;
11064;SDS011;5585;52.530;7.320;2024-01-15T01:04:13;5.23;;;1.10;;
11064;SDS011;5585;52.530;7.320;2024-01-15T01:06:39;6.30;;;1.90;;
11064;SDS011;5585;52.530;7.320;2024-01-15T01:09:06;5.07;;;1.17;;
11064;SDS011;5585;52.530;7.320;2024-01-15T01:11:32;6.20;;;1.43;;
11064;SDS011;5585;52.530;7.320;2024-01-15T01:13:59;6.87;;;1.60;;
11064;SDS011;5585;52.530;7.320;2024-01-15T01:16:25;5.63;;;1.30;;
11064;SDS011;5585;52.530;7.320;2024-01-15T01:18:53;5.83;;;1.83;;
11064;SDS011;5585;52.530;7.320;2024-01-15T01:21:20;5.93;;;1.37;;
11064;SDS011;5585;52.530;7.320;2024-01-15T01:23:46;6.73;;;1.57;;
11064;SDS011;5585;52.530;7.320;2024-01-15T01:26:15;4.13;;;1.13;;
11064;SDS011;5585;52.530;7.320;2024-01-15T01:28:41;5.60;;;1.40;;
11064;SDS011;5585;52.530;7.320;2024-01-15T01:31:07;6.93;;;1.50;;
11064;SDS011;5585;52.530;7.320;2024-01-15T01:33:34;6.37;;;1.57;;
11064;SDS011;5585;52.530;7.320;2024-01-15T01:36:02;6.63;;;1.60;;
11064;SDS011;5585;52.530;7.320;2024-01-15T01:38:32;7.10;;;1.53;;
11064;SDS011;5585;52.530;7.320;2024-01-15T01:40:59;7.57;;;1.63;;
11064;SDS011;5585;52.530;7.320;2024-01-15T01:43:25;6.20;;;1.40;;
11064;SDS011;5585;52.530;7.320;2024-01-15T01:45:52;7.87;;;1.67;;
11064;SDS011;5585;52.530;7.320;2024-01-15T01:48:18;4.63;;;1.17;;
11064;SDS011;5585;52.530;7.320;2024-01-15T01:50:45;6.40;;;1.10;;
11064;SDS011;5585;52.530;7.320;2024-01-15T01:53:12;5.10;;;1.40;;
11064;SDS011;5585;52.530;7.320;2024-01-15T01:55:40;7.70;;;1.50;;
11064;SDS011;5585;52.530;7.320;2024-01-15T01:58:06;5.37;;;0.97;;
11064;SDS011;5585;52.530;7.320;2024-01-15T02:00:33;4.10;;;0.80;;
11064;SDS011;5585;52.530;7.320;2024-01-15T02:03:00;4.23;;;1.00;;
11064;SDS011;5585;52.530;7.320;2024-01-15T02:05:28;6.90;;;1.80;;
11064;SDS011;5585;52.530;7.320;2024-01-15T02:07:55;4.97;;;1.10;;
11064;SDS011;5585;52.530;7.320;2024-01-15T02:10:23;5.90;;;1.00;;
11064;SDS011;5585;52.530;7.320;2024-01-15T02:12:49;10.53;;;1.53;;
11064;SDS011;5585;52.530;7.320;2024-01-15T02:15:16;4.03;;;1.23;;
11064;SDS011;5585;52.530;7.320;2024-01-15T02:17:58;11.03;;;1.80;;
11064;SDS011;5585;52.530;7.320;2024-01-15T02:20:24;10.43;;;2.47;;
11064;SDS011;5585;52.530;7.320;2024-01-15T02:22:51;6.27;;;2.20;;
11064;SDS011;5585;52.530;7.320;2024-01-15T02:25:19;7.00;;;1.87;;
11064;SDS011;5585;52.530;7.320;2024-01-15T02:27:45;5.73;;;1.40;;
11064;SDS011;5585;52.530;7.320;2024-01-15T02:30:12;6.07;;;1.50;;
11064;SDS011;5585;52.530;7.320;2024-01-15T02:32:39;9.53;;;2.40;;
11064;SDS011;5585;52.530;7.320;2024-01-15T02:35:05;7.03;;;1.30;;
11064;SDS011;5585;52.530;7.320;2024-01-15T02:37:32;5.87;;;1.37;;
11064;SDS011;5585;52.530;7.320;2024-01-15T02:39:58;7.33;;;1.57;;
11064;SDS011;5585;52.530;7.320;2024-01-15T02:42:27;7.87;;;1.30;;
11064;SDS011;5585;52.530;7.320;2024-01-15T02:44:53;5.47;;;1.50;;
11064;SDS011;5585;52.530;7.320;2024-01-15T02:47:20;6.63;;;1.13;;
11064;SDS011;5585;52.530;7.320;2024-01-15T02:49:46;4.97;;;1.50;;
11064;SDS011;5585;52.530;7.320;2024-01-15T02:52:12;6.03;;;1.37;;
11064;SDS011;5585;52.530;7.320;2024-01-15T02:54:39;5.43;;;1.10;;
11064;SDS011;5585;52.530;7.320;2024-01-15T02:57:05;6.83;;;1.17;;
11064;SDS011;5585;52.530;7.320;2024-01-15T02:59:33;8.83;;;1.37;;
11064;SDS011;5585;52.530;7.320;2024-01-15T03:02:00;5.23;;;1.20;;
11064;SDS011;5585;52.530;7.320;2024-01-15T03:04:26;5.03;;;1.40;;
11064;SDS011;5585;52.530;7.320;2024-01-15T03:06:52;6.10;;;1.13;;
11064;SDS011;5585;52.530;7.320;2024-01-15T03:09:19;6.07;;;1.20;;
11064;SDS011;5585;52.530;7.320;2024-01-15T03:11:45;7.77;;;1.20;;
11064;SDS011;5585;52.530;7.320;2024-01-15T03:14:12;7.60;;;1.47;;
11064;SDS011;5585;52.530;7.320;2024-01-15T03:16:39;8.40;;;1.57;;
11064;SDS011;5585;52.530;7.320;2024-01-15T03:19:06;9.17;;;1.60;;
11064;SDS011;5585;52.530;7.320;2024-01-15T03:21:33;4.03;;;1.03;;
11064;SDS011;5585;52.530;7.320;2024-01-15T03:23:59;7.97;;;1.77;;
11064;SDS011;5585;52.530;7.320;2024-01-15T03:26:26;5.53;;;0.87;;
11064;SDS011;5585;52.530;7.320;2024-01-15T03:28:52;4.30;;;0.93;;
11064;SDS011;5585;52.530;7.320;2024-01-15T03:31:19;5.30;;;1.00;;
11064;SDS011;5585;52.530;7.320;2024-01-15T03:33:46;4.27;;;0.87;;
11064;SDS011;5585;52.530;7.320;2024-01-15T03:36:13;4.90;;;1.00;;
11064;SDS011;5585;52.530;7.320;2024-01-15T03:38:40;4.93;;;1.03;;
11064;SDS011;5585;52.530;7.320;2024-01-15T03:41:07;5.37;;;0.87;;
11064;SDS011;5585;52.530;7.320;2024-01-15T03:43:33;3.70;;;0.80;;
11064;SDS011;5585;52.530;7.320;2024-01-15T03:46:00;3.30;;;1.03;;
11064;SDS011;5585;52.530;7.320;2024-01-15T03:48:27;4.00;;;0.77;;
11064;SDS011;5585;52.530;7.320;2024-01-15T03:50:55;3.50;;;0.80;;
11064;SDS011;5585;52.530;7.320;2024-01-15T03:53:22;4.77;;;0.83;;
11064;SDS011;5585;52.530;7.320;2024-01-15T03:55:48;2.83;;;0.60;;
11064;SDS011;5585;52.530;7.320;2024-01-15T03:58:15;2.63;;;0.70;;
11064;SDS011;5585;52.530;7.320;2024-01-15T04:00:41;3.33;;;1.00;;
11064;SDS011;5585;52.530;7.320;2024-01-15T04:03:08;6.40;;;0.90;;
11064;SDS011;5585;52.530;7.320;2024-01-15T04:05:34;1.93;;;0.50;;
11064;SDS011;5585;52.530;7.320;2024-01-15T04:08:02;3.53;;;1.07;;
11064;SDS011;5585;52.530;7.320;2024-01-15T04:10:29;3.73;;;0.77;;
11064;SDS011;5585;52.530;7.320;2024-01-15T04:12:55;2.67;;;0.80;;
11064;SDS011;5585;52.530;7.320;2024-01-15T04:15:22;2.33;;;0.43;;
11064;SDS011;5585;52.530;7.320;2024-01-15T04:17:48;3.53;;;0.60;;
11064;SDS011;5585;52.530;7.320;2024-01-15T04:20:15;1.67;;;0.70;;
11064;SDS011;5585;52.530;7.320;2024-01-15T04:22:41;2.13;;;0.40;;
11064;SDS011;5585;52.530;7.320;2024-01-15T04:25:09;1.57;;;0.40;;
11064;SDS011;5585;52.530;7.320;2024-01-15T04:27:35;3.33;;;0.40;;
11064;SDS011;5585;52.530;7.320;2024-01-15T04:30:02;1.10;;;0.40;;
11064;SDS011;5585;52.530;7.320;2024-01-15T04:32:29;3.13;;;0.50;;
11064;SDS011;5585;52.530;7.320;2024-01-15T04:34:55;2.03;;;0.53;;
11064;SDS011;5585;52.530;7.320;2024-01-15T04:37:21;1.87;;;0.30;;
11064;SDS011;5585;52.530;7.320;2024-01-15T04:39:48;3.23;;;0.80;;
11064;SDS011;5585;52.530;7.320;2024-01-15T04:42:19;2.97;;;1.00;;
11064;SDS011;5585;52.530;7.320;2024-01-15T04:44:45;3.20;;;0.53;;
11064;SDS011;5585;52.530;7.320;2024-01-15T04:47:12;4.17;;;1.00;;
11064;SDS011;5585;52.530;7.320;2024-01-15T04:49:38;2.80;;;0.80;;
11064;SDS011;5585;52.530;7.320;2024-01-15T04:52:05;3.43;;;0.73;;
11064;SDS011;5585;52.530;7.320;2024-01-15T04:54:31;2.77;;;0.80;;
11064;SDS011;5585;52.530;7.320;2024-01-15T04:56:58;1.60;;;0.70;;
11064;SDS011;5585;52.530;7.320;2024-01-15T04:59:25;2.20;;;0.90;;
11064;SDS011;5585;52.530;7.320;2024-01-15T05:01:52;2.90;;;0.60;;
11064;SDS011;5585;52.530;7.320;2024-01-15T05:04:18;3.70;;;0.70;;
11064;SDS011;5585;52.530;7.320;2024-01-15T05:06:45;3.77;;;0.73;;
11064;SDS011;5585;52.530;7.320;2024-01-15T05:09:11;2.97;;;0.97;;
11064;SDS011;5585;52.530;7.320;2024-01-15T05:11:38;4.03;;;0.97;;
11064;SDS011;5585;52.530;7.320;2024-01-15T05:14:04;3.77;;;0.80;;
11064;SDS011;5585;52.530;7.320;2024-01-15T05:16:32;4.23;;;0.97;;
11064;SDS011;5585;52.530;7.320;2024-01-15T05:18:59;3.80;;;0.87;;
11064;SDS011;5585;52.530;7.320;2024-01-15T05:21:25;3.40;;;0.70;;
11064;SDS011;5585;52.530;7.320;2024-01-15T05:23:51;4.70;;;0.80;;
11064;SDS011;5585;52.530;7.320;2024-01-15T05:26:18;5.90;;;1.20;;
11064;SDS011;5585;52.530;7.320;2024-01-15T05:28:44;4.70;;;0.90;;
11064;SDS011;5585;52.530;7.320;2024-01-15T05:31:11;2.80;;;0.70;;
11064;SDS011;5585;52.530;7.320;2024-01-15T05:33:38;7.00;;;0.80;;
11064;SDS011;5585;52.530;7.320;2024-01-15T05:36:05;1.73;;;0.90;;
11064;SDS011;5585;52.530;7.320;2024-01-15T05:38:32;2.80;;;1.03;;
11064;SDS011;5585;52.530;7.320;2024-01-15T05:40:58;4.07;;;0.90;;
11064;SDS011;5585;52.530;7.320;2024-01-15T05:43:25;5.03;;;1.40;;
11064;SDS011;5585;52.530;7.320;2024-01-15T05:45:51;1.83;;;0.70;;
11064;SDS011;5585;52.530;7.320;2024-01-15T05:48:17;4.63;;;0.93;;
11064;SDS011;5585;52.530;7.320;2024-01-15T05:50:45;4.83;;;1.07;;
11064;SDS011;5585;52.530;7.320;2024-01-15T05:53:11;5.23;;;0.90;;
11064;SDS011;5585;52.530;7.320;2024-01-15T05:55:37;4.87;;;1.00;;
11064;SDS011;5585;52.530;7.320;2024-01-15T05:58:04;5.03;;;1.00;;
11064;SDS011;5585;52.530;7.320;2024-01-15T06:00:30;4.97;;;1.23;;
11064;SDS011;5585;52.530;7.320;2024-01-15T06:02:58;5.60;;;1.50;;
11064;SDS011;5585;52.530;7.320;2024-01-15T06:05:24;5.70;;;1.53;;
11064;SDS011;5585;52.530;7.320;2024-01-15T06:07:52;3.87;;;1.10;;
11064;SDS011;5585;52.530;7.320;2024-01-15T06:10:18;3.50;;;0.80;;
11064;SDS011;5585;52.530;7.320;2024-01-15T06:12:45;4.27;;;1.10;;
11064;SDS011;5585;52.530;7.320;2024-01-15T06:15:11;2.87;;;0.97;;
11064;SDS011;5585;52.530;7.320;2024-01-15T06:17:38;5.17;;;1.33;;
11064;SDS011;5585;52.530;7.320;2024-01-15T06:20:05;4.67;;;1.30;;
11064;SDS011;5585;52.530;7.320;2024-01-15T06:22:31;4.30;;;1.10;;
11064;SDS011;5585;52.530;7.320;2024-01-15T06:25:00;5.53;;;1.20;;
11064;SDS011;5585;52.530;7.320;2024-01-15T06:27:26;4.37;;;1.07;;
11064;SDS011;5585;52.530;7.320;2024-01-15T06:29:52;3.60;;;1.07;;
11064;SDS011;5585;52.530;7.320;2024-01-15T06:32:20;2.83;;;1.07;;
11064;SDS011;5585;52.530;7.320;2024-01-15T06:34:47;4.50;;;0.80;;
11064;SDS011;5585;52.530;7.320;2024-01-15T06:37:13;2.77;;;1.10;;
11064;SDS011;5585;52.530;7.320;2024-01-15T06:39:40;4.40;;;1.30;;
11064;SDS011;5585;52.530;7.320;2024-01-15T06:42:08;8.33;;;1.23;;
11064;SDS011;5585;52.530;7.320;2024-01-15T06:44:34;4.47;;;1.07;;
11064;SDS011;5585;52.530;7.320;2024-01-15T06:47:01;3.80;;;1.00;;
11064;SDS011;5585;52.530;7.320;2024-01-15T06:49:27;3.07;;;0.83;;
11064;SDS011;5585;52.530;7.320;2024-01-15T06:51:54;3.80;;;0.90;;
11064;SDS011;5585;52.530;7.320;2024-01-15T06:54:20;4.03;;;0.83;;
11064;SDS011;5585;52.530;7.320;2024-01-15T06:56:47;2.67;;;1.30;;
11064;SDS011;5585;52.530;7.320;2024-01-15T06:59:14;4.47;;;1.20;;
11064;SDS011;5585;52.530;7.320;2024-01-15T07:01:41;5.23;;;1.03;;
11064;SDS011;5585;52.530;7.320;2024-01-15T07:04:07;1.73;;;0.60;;
11064;SDS011;5585;52.530;7.320;2024-01-15T07:06:34;2.97;;;0.53;;
11064;SDS011;5585;52.530;7.320;2024-01-15T07:09:00;4.47;;;1.00;;
11064;SDS011;5585;52.530;7.320;2024-01-15T07:11:27;3.63;;;0.97;;
11064;SDS011;5585;52.530;7.320;2024-01-15T07:13:53;3.37;;;0.60;;
11064;SDS011;5585;52.530;7.320;2024-01-15T07:16:22;2.43;;;0.53;;
11064;SDS011;5585;52.530;7.320;2024-01-15T07:18:49;2.37;;;0.70;;
11064;SDS011;5585;52.530;7.320;2024-01-15T07:21:15;1.70;;;0.50;;
11064;SDS011;5585;52.530;7.320;2024-01-15T07:23:42;4.63;;;0.80;;
11064;SDS011;5585;52.530;7.320;2024-01-15T07:26:08;2.43;;;0.60;;
11064;SDS011;5585;52.530;7.320;2024-01-15T07:28:35;2.67;;;0.80;;
11064;SDS011;5585;52.530;7.320;2024-01-15T07:31:02;3.00;;;0.87;;
11064;SDS011;5585;52.530;7.320;2024-01-15T07:33:30;2.50;;;0.70;;
11064;SDS011;5585;52.530;7.320;2024-01-15T07:35:56;2.30;;;0.60;;
11064;SDS011;5585;52.530;7.320;2024-01-15T07:38:23;2.67;;;0.60;;
11064;SDS011;5585;52.530;7.320;2024-01-15T07:40:49;1.87;;;0.67;;
11064;SDS011;5585;52.530;7.320;2024-01-15T07:43:16;1.90;;;0.50;;
11064;SDS011;5585;52.530;7.320;2024-01-15T07:45:42;2.47;;;0.70;;
11064;SDS011;5585;52.530;7.320;2024-01-15T07:48:10;2.17;;;0.73;;
11064;SDS011;5585;52.530;7.320;2024-01-15T07:50:38;0.70;;;0.40;;
11064;SDS011;5585;52.530;7.320;2024-01-15T07:53:04;1.77;;;0.50;;
11064;SDS011;5585;52.530;7.320;2024-01-15T07:55:31;0.60;;;0.40;;
11064;SDS011;5585;52.530;7.320;2024-01-15T07:57:58;0.73;;;0.73;;
11064;SDS011;5585;52.530;7.320;2024-01-15T08:00:25;1.53;;;0.60;;
11064;SDS011;5585;52.530;7.320;2024-01-15T08:02:51;2.03;;;1.40;;
11064;SDS011;5585;52.530;7.320;2024-01-15T08:05:18;1.70;;;1.60;;
11064;SDS011;5585;52.530;7.320;2024-01-15T08:07:47;4.43;;;2.23;;
11064;SDS011;5585;52.530;7.320;2024-01-15T08:10:13;2.37;;;1.40;;
11064;SDS011;5585;52.530;7.320;2024-01-15T08:12:40;3.43;;;1.43;;
11064;SDS011;5585;52.530;7.320;2024-01-15T08:15:06;1.83;;;0.97;;
11064;SDS011;5585;52.530;7.320;2024-01-15T08:17:33;3.97;;;1.17;;
11064;SDS011;5585;52.530;7.320;2024-01-15T08:19:59;4.97;;;1.70;;
11064;SDS011;5585;52.530;7.320;2024-01-15T08:22:26;4.33;;;1.50;;
11064;SDS011;5585;52.530;7.320;2024-01-15T08:24:54;3.10;;;1.23;;
11064;SDS011;5585;52.530;7.320;2024-01-15T08:27:20;4.00;;;1.73;;
11064;SDS011;5585;52.530;7.320;2024-01-15T08:29:47;3.50;;;1.80;;
11064;SDS011;5585;52.530;7.320;2024-01-15T08:32:13;3.07;;;1.23;;
11064;SDS011;5585;52.530;7.320;2024-01-15T08:34:40;4.67;;;1.37;;
11064;SDS011;5585;52.530;7.320;2024-01-15T08:37:07;3.83;;;1.70;;
11064;SDS011;5585;52.530;7.320;2024-01-15T08:39:33;3.03;;;1.23;;
11064;SDS011;5585;52.530;7.320;2024-01-15T08:42:02;3.53;;;1.53;;
11064;SDS011;5585;52.530;7.320;2024-01-15T08:44:28;4.57;;;1.90;;
11064;SDS011;5585;52.530;7.320;2024-01-15T08:46:54;3.70;;;1.87;;
11064;SDS011;5585;52.530;7.320;2024-01-15T08:49:21;4.53;;;1.90;;
11064;SDS011;5585;52.530;7.320;2024-01-15T08:51:47;5.53;;;2.20;;
11064;SDS011;5585;52.530;7.320;2024-01-15T08:54:14;6.03;;;2.20;;
11064;SDS011;5585;52.530;7.320;2024-01-15T08:56:40;2.67;;;1.57;;
11064;SDS011;5585;52.530;7.320;2024-01-15T08:59:08;4.37;;;1.67;;
11064;SDS011;5585;52.530;7.320;2024-01-15T09:01:37;6.07;;;1.67;;
11064;SDS011;5585;52.530;7.320;2024-01-15T09:04:04;5.97;;;1.63;;
11064;SDS011;5585;52.530;7.320;2024-01-15T09:06:30;4.87;;;1.50;;
11064;SDS011;5585;52.530;7.320;2024-01-15T09:08:57;3.90;;;1.47;;
11064;SDS011;5585;52.530;7.320;2024-01-15T09:11:23;4.63;;;1.67;;
11064;SDS011;5585;52.530;7.320;2024-01-15T09:13:50;4.37;;;1.63;;
11064;SDS011;5585;52.530;7.320;2024-01-15T09:16:18;7.23;;;1.73;;
11064;SDS011;5585;52.530;7.320;2024-01-15T09:18:44;5.97;;;1.90;;
11064;SDS011;5585;52.530;7.320;2024-01-15T09:21:12;5.60;;;2.37;;
11064;SDS011;5585;52.530;7.320;2024-01-15T09:23:38;4.50;;;1.70;;
11064;SDS011;5585;52.530;7.320;2024-01-15T09:26:04;4.97;;;1.80;;
11064;SDS011;5585;52.530;7.320;2024-01-15T09:28:31;5.77;;;1.90;;
11064;SDS011;5585;52.530;7.320;2024-01-15T09:30:57;5.20;;;1.37;;
11064;SDS011;5585;52.530;7.320;2024-01-15T09:33:25;5.00;;;1.50;;
11064;SDS011;5585;52.530;7.320;2024-01-15T09:35:52;4.83;;;1.40;;
11064;SDS011;5585;52.530;7.320;2024-01-15T09:38:18;3.80;;;1.03;;
11064;SDS011;5585;52.530;7.320;2024-01-15T09:40:45;3.73;;;1.10;;
11064;SDS011;5585;52.530;7.320;2024-01-15T09:43:12;7.80;;;1.63;;
11064;SDS011;5585;52.530;7.320;2024-01-15T09:45:38;3.00;;;1.27;;
11064;SDS011;5585;52.530;7.320;2024-01-15T09:48:06;2.90;;;1.10;;
11064;SDS011;5585;52.530;7.320;2024-01-15T09:50:34;5.13;;;1.17;;
11064;SDS011;5585;52.530;7.320;2024-01-15T09:53:00;5.33;;;1.43;;
11064;SDS011;5585;52.530;7.320;2024-01-15T09:55:27;5.17;;;1.37;;
11064;SDS011;5585;52.530;7.320;2024-01-15T09:57:54;5.60;;;1.13;;
11064;SDS011;5585;52.530;7.320;2024-01-15T10:00:21;4.13;;;1.10;;
11064;SDS011;5585;52.530;7.320;2024-01-15T10:02:48;4.17;;;1.30;;
11064;SDS011;5585;52.530;7.320;2024-01-15T10:05:15;3.53;;;0.97;;
11064;SDS011;5585;52.530;7.320;2024-01-15T10:07:43;3.63;;;0.90;;
11064;SDS011;5585;52.530;7.320;2024-01-15T10:10:10;3.30;;;1.10;;
11064;SDS011;5585;52.530;7.320;2024-01-15T10:12:36;3.80;;;1.20;;
11064;SDS011;5585;52.530;7.320;2024-01-15T10:15:04;2.43;;;0.97;;
11064;SDS011;5585;52.530;7.320;2024-01-15T10:17:31;5.47;;;1.50;;
11064;SDS011;5585;52.530;7.320;2024-01-15T10:19:57;3.13;;;0.83;;
11064;SDS011;5585;52.530;7.320;2024-01-15T10:22:24;3.40;;;0.83;;
11064;SDS011;5585;52.530;7.320;2024-01-15T10:24:51;5.37;;;1.90;;
11064;SDS011;5585;52.530;7.320;2024-01-15T10:27:18;4.67;;;1.07;;
11064;SDS011;5585;52.530;7.320;2024-01-15T10:29:44;3.30;;;0.93;;
11064;SDS011;5585;52.530;7.320;2024-01-15T10:32:11;3.70;;;1.13;;
11064;SDS011;5585;52.530;7.320;2024-01-15T10:34:37;3.97;;;1.10;;
11064;SDS011;5585;52.530;7.320;2024-01-15T10:37:05;2.13;;;0.60;;
11064;SDS011;5585;52.530;7.320;2024-01-15T10:39:33;2.63;;;0.70;;
11064;SDS011;5585;52.530;7.320;2024-01-15T10:42:00;4.17;;;0.90;;
11064;SDS011;5585;52.530;7.320;2024-01-15T10:44:28;5.93;;;1.10;;
11064;SDS011;5585;52.530;7.320;2024-01-15T10:46:55;3.70;;;0.90;;
11064;SDS011;5585;52.530;7.320;2024-01-15T10:49:22;3.70;;;1.07;;
11064;SDS011;5585;52.530;7.320;2024-01-15T10:51:51;2.87;;;1.10;;
11064;SDS011;5585;52.530;7.320;2024-01-15T10:54:18;4.97;;;1.40;;
11064;SDS011;5585;52.530;7.320;2024-01-15T10:56:45;4.50;;;1.10;;
11064;SDS011;5585;52.530;7.320;2024-01-15T10:59:14;4.17;;;1.03;;
11064;SDS011;5585;52.530;7.320;2024-01-15T11:01:40;3.40;;;0.80;;
11064;SDS011;5585;52.530;7.320;2024-01-15T11:04:08;4.33;;;1.07;;
11064;SDS011;5585;52.530;7.320;2024-01-15T11:06:41;5.87;;;1.00;;
11064;SDS011;5585;52.530;7.320;2024-01-15T11:09:08;2.77;;;0.90;;
11064;SDS011;5585;52.530;7.320;2024-01-15T11:11:35;2.97;;;0.70;;
11064;SDS011;5585;52.530;7.320;2024-01-15T11:14:01;3.23;;;0.67;;
11064;SDS011;5585;52.530;7.320;2024-01-15T11:16:30;2.30;;;0.87;;
11064;SDS011;5585;52.530;7.320;2024-01-15T11:19:17;3.73;;;1.00;;
11064;SDS011;5585;52.530;7.320;2024-01-15T11:21:44;2.23;;;0.73;;
11064;SDS011;5585;52.530;7.320;2024-01-15T11:24:11;4.87;;;1.10;;
11064;SDS011;5585;52.530;7.320;2024-01-15T11:26:57;3.37;;;1.00;;
11064;SDS011;5585;52.530;7.320;2024-01-15T11:29:30;5.20;;;1.00;;
11064;SDS011;5585;52.530;7.320;2024-01-15T11:32:00;3.13;;;1.30;;
11064;SDS011;5585;52.530;7.320;2024-01-15T11:37:12;3.67;;;1.00;;
11064;SDS011;5585;52.530;7.320;2024-01-15T11:39:42;3.37;;;1.27;;
11064;SDS011;5585;52.530;7.320;2024-01-15T11:42:09;6.23;;;1.20;;
11064;SDS011;5585;52.530;7.320;2024-01-15T11:44:36;4.90;;;1.30;;
11064;SDS011;5585;52.530;7.320;2024-01-15T11:47:05;3.00;;;0.93;;
11064;SDS011;5585;52.530;7.320;2024-01-15T11:49:35;4.50;;;1.20;;
11064;SDS011;5585;52.530;7.320;2024-01-15T11:52:09;5.23;;;1.03;;
11064;SDS011;5585;52.530;7.320;2024-01-15T11:54:37;4.90;;;1.03;;
11064;SDS011;5585;52.530;7.320;2024-01-15T11:57:06;8.23;;;1.30;;
11064;SDS011;5585;52.530;7.320;2024-01-15T11:59:35;3.90;;;0.93;;
11064;SDS011;5585;52.530;7.320;2024-01-15T12:02:02;4.27;;;1.20;;
11064;SDS011;5585;52.530;7.320;2024-01-15T12:04:30;2.87;;;1.10;;
11064;SDS011;5585;52.530;7.320;2024-01-15T12:06:57;3.47;;;1.10;;
11064;SDS011;5585;52.530;7.320;2024-01-15T12:09:23;6.57;;;1.10;;
11064;SDS011;5585;52.530;7.320;2024-01-15T12:11:50;5.37;;;1.20;;
11064;SDS011;5585;52.530;7.320;2024-01-15T12:14:20;4.53;;;1.10;;
11064;SDS011;5585;52.530;7.320;2024-01-15T12:16:46;3.33;;;0.90;;
11064;SDS011;5585;52.530;7.320;2024-01-15T12:19:13;3.90;;;1.23;;
11064;SDS011;5585;52.530;7.320;2024-01-15T12:21:41;5.73;;;1.17;;
11064;SDS011;5585;52.530;7.320;2024-01-15T12:24:08;3.97;;;0.97;;
11064;SDS011;5585;52.530;7.320;2024-01-15T12:26:34;2.67;;;1.10;;
11064;SDS011;5585;52.530;7.320;2024-01-15T12:29:01;3.60;;;0.90;;
11064;SDS011;5585;52.530;7.320;2024-01-15T12:31:29;2.00;;;0.80;;
11064;SDS011;5585;52.530;7.320;2024-01-15T12:33:55;3.17;;;0.90;;
11064;SDS011;5585;52.530;7.320;2024-01-15T12:36:22;3.00;;;1.23;;
11064;SDS011;5585;52.530;7.320;2024-01-15T12:38:50;2.53;;;1.10;;
11064;SDS011;5585;52.530;7.320;2024-01-15T12:41:16;5.57;;;0.90;;
11064;SDS011;5585;52.530;7.320;2024-01-15T12:43:43;3.93;;;0.90;;
11064;SDS011;5585;52.530;7.320;2024-01-15T12:46:09;3.43;;;1.00;;
11064;SDS011;5585;52.530;7.320;2024-01-15T12:48:36;2.43;;;0.83;;
11064;SDS011;5585;52.530;7.320;2024-01-15T12:51:05;4.40;;;0.77;;
11064;SDS011;5585;52.530;7.320;2024-01-15T12:53:32;2.30;;;0.60;;
11064;SDS011;5585;52.530;7.320;2024-01-15T12:55:59;3.93;;;0.80;;
11064;SDS011;5585;52.530;7.320;2024-01-15T12:58:26;2.90;;;0.80;;
11064;SDS011;5585;52.530;7.320;2024-01-15T13:00:52;2.23;;;0.50;;
11064;SDS011;5585;52.530;7.320;2024-01-15T13:03:19;2.33;;;0.80;;
11064;SDS011;5585;52.530;7.320;2024-01-15T13:05:45;2.13;;;0.67;;
11064;SDS011;5585;52.530;7.320;2024-01-15T13:08:12;3.00;;;0.80;;
11064;SDS011;5585;52.530;7.320;2024-01-15T13:10:38;2.50;;;0.67;;
11064;SDS011;5585;52.530;7.320;2024-01-15T13:13:08;1.33;;;0.43;;
11064;SDS011;5585;52.530;7.320;2024-01-15T13:15:35;1.30;;;0.53;;
11064;SDS011;5585;52.530;7.320;2024-01-15T13:18:02;1.77;;;0.43;;
11064;SDS011;5585;52.530;7.320;2024-01-15T13:20:28;0.60;;;0.30;;
11064;SDS011;5585;52.530;7.320;2024-01-15T13:22:55;1.03;;;0.60;;
11064;SDS011;5585;52.530;7.320;2024-01-15T13:25:21;1.00;;;0.50;;
11064;SDS011;5585;52.530;7.320;2024-01-15T13:27:47;1.53;;;0.40;;
11064;SDS011;5585;52.530;7.320;2024-01-15T13:30:16;0.50;;;0.40;;
11064;SDS011;5585;52.530;7.320;2024-01-15T13:32:42;0.90;;;0.70;;
11064;SDS011;5585;52.530;7.320;2024-01-15T13:35:08;1.30;;;0.60;;
11064;SDS011;5585;52.530;7.320;2024-01-15T13:37:38;0.73;;;0.37;;
11064;SDS011;5585;52.530;7.320;2024-01-15T13:40:06;0.57;;;0.30;;
11064;SDS011;5585;52.530;7.320;2024-01-15T13:42:34;0.87;;;0.30;;
11064;SDS011;5585;52.530;7.320;2024-01-15T13:45:03;0.93;;;0.43;;
11064;SDS011;5585;52.530;7.320;2024-01-15T13:47:32;1.40;;;0.50;;
11064;SDS011;5585;52.530;7.320;2024-01-15T13:49:59;1.20;;;0.50;;
11064;SDS011;5585;52.530;7.320;2024-01-15T13:52:25;1.80;;;0.50;;
11064;SDS011;5585;52.530;7.320;2024-01-15T13:54:53;2.87;;;0.80;;
11064;SDS011;5585;52.530;7.320;2024-01-15T13:57:19;2.20;;;0.60;;
11064;SDS011;5585;52.530;7.320;2024-01-15T13:59:47;3.17;;;0.80;;
11064;SDS011;5585;52.530;7.320;2024-01-15T14:02:14;2.63;;;1.20;;
11064;SDS011;5585;52.530;7.320;2024-01-15T14:04:42;2.50;;;0.80;;
11064;SDS011;5585;52.530;7.320;2024-01-15T14:07:08;2.37;;;0.83;;
11064;SDS011;5585;52.530;7.320;2024-01-15T14:09:35;2.50;;;1.20;;
11064;SDS011;5585;52.530;7.320;2024-01-15T14:12:02;2.83;;;1.53;;
11064;SDS011;5585;52.530;7.320;2024-01-15T14:14:29;3.93;;;1.47;;
11064;SDS011;5585;52.530;7.320;2024-01-15T14:16:55;2.40;;;0.90;;
11064;SDS011;5585;52.530;7.320;2024-01-15T14:19:22;3.23;;;0.90;;
11064;SDS011;5585;52.530;7.320;2024-01-15T14:21:50;4.43;;;1.50;;
11064;SDS011;5585;52.530;7.320;2024-01-15T14:24:16;2.80;;;1.00;;
11064;SDS011;5585;52.530;7.320;2024-01-15T14:26:43;4.63;;;1.30;;
11064;SDS011;5585;52.530;7.320;2024-01-15T14:29:10;4.60;;;1.10;;
11064;SDS011;5585;52.530;7.320;2024-01-15T14:31:37;3.13;;;1.43;;
11064;SDS011;5585;52.530;7.320;2024-01-15T14:34:03;3.17;;;0.87;;
11064;SDS011;5585;52.530;7.320;2024-01-15T14:36:30;5.03;;;1.13;;
11064;SDS011;5585;52.530;7.320;2024-01-15T14:38:58;2.20;;;0.80;;
11064;SDS011;5585;52.530;7.320;2024-01-15T14:41:24;1.13;;;0.67;;
11064;SDS011;5585;52.530;7.320;2024-01-15T14:43:50;3.80;;;2.13;;
11064;SDS011;5585;52.530;7.320;2024-01-15T14:46:17;3.30;;;2.00;;
11064;SDS011;5585;52.530;7.320;2024-01-15T14:48:43;2.10;;;0.70;;
11064;SDS011;5585;52.530;7.320;2024-01-15T14:51:10;1.83;;;0.60;;
11064;SDS011;5585;52.530;7.320;2024-01-15T14:53:36;4.27;;;0.93;;
11064;SDS011;5585;52.530;7.320;2024-01-15T14:56:05;3.47;;;0.80;;
11064;SDS011;5585;52.530;7.320;2024-01-15T14:58:33;3.37;;;0.80;;
11064;SDS011;5585;52.530;7.320;2024-01-15T15:00:59;3.50;;;1.27;;